sensor_id;sensor_type;location;lat;lon;timestamp;P1;durP1;ratioP1;P2;durP2;ratioP2
64907;SDS011;69061;52.236;5.188;2023-04-24T00:01:52;3.70;;;3.33;;
64907;SDS011;69061;52.236;5.188;2023-04-24T00:04:18;5.82;;;3.60;;
64907;SDS011;69061;52.236;5.188;2023-04-24T00:06:45;7.05;;;3.45;;
64907;SDS011;69061;52.236;5.188;2023-04-24T00:09:14;4.20;;;2.78;;
64907;SDS011;69061;52.236;5.188;2023-04-24T00:11:42;3.28;;;2.20;;
64907;SDS011;69061;52.236;5.188;2023-04-24T00:14:08;2.33;;;2.13;;
64907;SDS011;69061;52.236;5.188;2023-04-24T00:16:35;2.20;;;2.00;;
64907;SDS011;69061;52.236;5.188;2023-04-24T00:19:01;2.10;;;2.00;;
64907;SDS011;69061;52.236;5.188;2023-04-24T00:21:28;2.40;;;2.20;;
64907;SDS011;69061;52.236;5.188;2023-04-24T00:23:55;3.72;;;2.97;;
64907;SDS011;69061;52.236;5.188;2023-04-24T00:26:21;5.75;;;2.90;;
64907;SDS011;69061;52.236;5.188;2023-04-24T00:28:49;3.42;;;2.78;;
64907;SDS011;69061;52.236;5.188;2023-04-24T00:31:16;3.22;;;2.72;;
64907;SDS011;69061;52.236;5.188;2023-04-24T00:33:42;2.80;;;2.55;;
64907;SDS011;69061;52.236;5.188;2023-04-24T00:36:09;2.95;;;2.40;;
64907;SDS011;69061;52.236;5.188;2023-04-24T00:38:35;2.33;;;2.13;;
64907;SDS011;69061;52.236;5.188;2023-04-24T00:41:02;2.08;;;1.92;;
64907;SDS011;69061;52.236;5.188;2023-04-24T00:43:28;2.25;;;1.80;;
64907;SDS011;69061;52.236;5.188;2023-04-24T00:45:56;3.72;;;2.72;;
64907;SDS011;69061;52.236;5.188;2023-04-24T00:48:24;2.63;;;2.33;;
64907;SDS011;69061;52.236;5.188;2023-04-24T00:50:51;4.10;;;2.90;;
64907;SDS011;69061;52.236;5.188;2023-04-24T00:53:18;3.83;;;2.90;;
64907;SDS011;69061;52.236;5.188;2023-04-24T00:55:44;6.13;;;3.20;;
64907;SDS011;69061;52.236;5.188;2023-04-24T00:58:12;2.92;;;2.53;;
64907;SDS011;69061;52.236;5.188;2023-04-24T01:00:39;4.03;;;2.75;;
64907;SDS011;69061;52.236;5.188;2023-04-24T01:03:07;4.72;;;3.20;;
64907;SDS011;69061;52.236;5.188;2023-04-24T01:05:34;3.42;;;2.67;;
64907;SDS011;69061;52.236;5.188;2023-04-24T01:08:01;2.85;;;2.50;;
64907;SDS011;69061;52.236;5.188;2023-04-24T01:10:27;3.83;;;2.55;;
64907;SDS011;69061;52.236;5.188;2023-04-24T01:12:57;3.97;;;2.38;;
64907;SDS011;69061;52.236;5.188;2023-04-24T01:15:24;4.00;;;2.40;;
64907;SDS011;69061;52.236;5.188;2023-04-24T01:17:50;4.72;;;2.53;;
64907;SDS011;69061;52.236;5.188;2023-04-24T01:20:18;4.43;;;2.50;;
64907;SDS011;69061;52.236;5.188;2023-04-24T01:22:47;7.95;;;3.88;;
64907;SDS011;69061;52.236;5.188;2023-04-24T01:25:13;3.30;;;2.55;;
64907;SDS011;69061;52.236;5.188;2023-04-24T01:27:40;5.28;;;2.53;;
64907;SDS011;69061;52.236;5.188;2023-04-24T01:30:07;4.65;;;2.22;;
64907;SDS011;69061;52.236;5.188;2023-04-24T01:32:35;4.40;;;2.47;;
64907;SDS011;69061;52.236;5.188;2023-04-24T01:35:03;3.25;;;2.47;;
64907;SDS011;69061;52.236;5.188;2023-04-24T01:37:30;3.70;;;2.60;;
64907;SDS011;69061;52.236;5.188;2023-04-24T01:39:59;5.72;;;3.58;;
64907;SDS011;69061;52.236;5.188;2023-04-24T01:42:26;5.35;;;2.60;;
64907;SDS011;69061;52.236;5.188;2023-04-24T01:44:52;4.35;;;2.80;;
64907;SDS011;69061;52.236;5.188;2023-04-24T01:47:20;2.92;;;2.53;;
64907;SDS011;69061;52.236;5.188;2023-04-24T01:49:47;3.05;;;2.60;;
64907;SDS011;69061;52.236;5.188;2023-04-24T01:52:14;4.72;;;3.15;;
64907;SDS011;69061;52.236;5.188;2023-04-24T01:54:41;3.65;;;2.65;;
64907;SDS011;69061;52.236;5.188;2023-04-24T01:57:09;3.47;;;2.70;;
64907;SDS011;69061;52.236;5.188;2023-04-24T01:59:36;5.07;;;2.97;;
64907;SDS011;69061;52.236;5.188;2023-04-24T02:02:02;2.63;;;2.40;;
64907;SDS011;69061;52.236;5.188;2023-04-24T02:04:29;3.90;;;2.75;;
64907;SDS011;69061;52.236;5.188;2023-04-24T02:06:56;3.42;;;2.40;;
64907;SDS011;69061;52.236;5.188;2023-04-24T02:09:22;4.22;;;2.72;;
64907;SDS011;69061;52.236;5.188;2023-04-24T02:11:49;2.92;;;2.65;;
64907;SDS011;69061;52.236;5.188;2023-04-24T02:14:16;10.43;;;3.50;;
64907;SDS011;69061;52.236;5.188;2023-04-24T02:16:43;4.80;;;2.60;;
64907;SDS011;69061;52.236;5.188;2023-04-24T02:19:10;4.25;;;2.80;;
64907;SDS011;69061;52.236;5.188;2023-04-24T02:21:36;3.72;;;2.60;;
64907;SDS011;69061;52.236;5.188;2023-04-24T02:24:03;3.00;;;2.60;;
64907;SDS011;69061;52.236;5.188;2023-04-24T02:26:29;4.63;;;2.70;;
64907;SDS011;69061;52.236;5.188;2023-04-24T02:28:56;3.13;;;2.50;;
64907;SDS011;69061;52.236;5.188;2023-04-24T02:31:24;2.63;;;2.42;;
64907;SDS011;69061;52.236;5.188;2023-04-24T02:33:51;3.25;;;2.33;;
64907;SDS011;69061;52.236;5.188;2023-04-24T02:36:17;3.22;;;2.38;;
64907;SDS011;69061;52.236;5.188;2023-04-24T02:38:44;2.50;;;1.83;;
64907;SDS011;69061;52.236;5.188;2023-04-24T02:41:10;2.30;;;2.05;;
64907;SDS011;69061;52.236;5.188;2023-04-24T02:43:37;2.30;;;2.00;;
64907;SDS011;69061;52.236;5.188;2023-04-24T02:46:03;2.30;;;2.00;;
64907;SDS011;69061;52.236;5.188;2023-04-24T02:48:31;3.28;;;2.20;;
64907;SDS011;69061;52.236;5.188;2023-04-24T02:50:58;3.35;;;2.03;;
64907;SDS011;69061;52.236;5.188;2023-04-24T02:53:24;2.00;;;1.90;;
64907;SDS011;69061;52.236;5.188;2023-04-24T02:55:51;3.90;;;2.30;;
64907;SDS011;69061;52.236;5.188;2023-04-24T02:58:17;4.55;;;2.50;;
64907;SDS011;69061;52.236;5.188;2023-04-24T03:00:45;3.20;;;2.55;;
64907;SDS011;69061;52.236;5.188;2023-04-24T03:03:12;5.32;;;2.65;;
64907;SDS011;69061;52.236;5.188;2023-04-24T03:05:40;4.43;;;2.97;;
64907;SDS011;69061;52.236;5.188;2023-04-24T03:08:07;6.95;;;3.50;;
64907;SDS011;69061;52.236;5.188;2023-04-24T03:10:33;5.95;;;3.20;;
64907;SDS011;69061;52.236;5.188;2023-04-24T03:13:00;3.00;;;2.55;;
64907;SDS011;69061;52.236;5.188;2023-04-24T03:15:26;3.55;;;2.95;;
64907;SDS011;69061;52.236;5.188;2023-04-24T03:17:53;5.28;;;3.30;;
64907;SDS011;69061;52.236;5.188;2023-04-24T03:20:20;4.90;;;3.40;;
64907;SDS011;69061;52.236;5.188;2023-04-24T03:22:48;7.60;;;3.65;;
64907;SDS011;69061;52.236;5.188;2023-04-24T03:25:15;4.95;;;3.60;;
64907;SDS011;69061;52.236;5.188;2023-04-24T03:27:41;4.05;;;3.30;;
64907;SDS011;69061;52.236;5.188;2023-04-24T03:30:08;6.63;;;3.58;;
64907;SDS011;69061;52.236;5.188;2023-04-24T03:32:35;6.57;;;3.85;;
64907;SDS011;69061;52.236;5.188;2023-04-24T03:35:02;4.85;;;3.88;;
64907;SDS011;69061;52.236;5.188;2023-04-24T03:37:29;3.92;;;3.20;;
64907;SDS011;69061;52.236;5.188;2023-04-24T03:39:57;5.22;;;3.30;;
64907;SDS011;69061;52.236;5.188;2023-04-24T03:42:23;5.88;;;3.60;;
64907;SDS011;69061;52.236;5.188;2023-04-24T03:44:50;4.45;;;3.28;;
64907;SDS011;69061;52.236;5.188;2023-04-24T03:47:16;6.15;;;3.58;;
64907;SDS011;69061;52.236;5.188;2023-04-24T03:49:43;4.70;;;3.22;;
64907;SDS011;69061;52.236;5.188;2023-04-24T03:52:09;5.43;;;3.58;;
64907;SDS011;69061;52.236;5.188;2023-04-24T03:54:36;5.38;;;3.60;;
64907;SDS011;69061;52.236;5.188;2023-04-24T03:57:03;4.70;;;3.70;;
64907;SDS011;69061;52.236;5.188;2023-04-24T03:59:30;5.68;;;3.42;;
64907;SDS011;69061;52.236;5.188;2023-04-24T04:01:57;3.75;;;3.00;;
64907;SDS011;69061;52.236;5.188;2023-04-24T04:04:23;4.30;;;2.95;;
64907;SDS011;69061;52.236;5.188;2023-04-24T04:06:50;5.43;;;3.28;;
64907;SDS011;69061;52.236;5.188;2023-04-24T04:09:17;5.22;;;3.42;;
64907;SDS011;69061;52.236;5.188;2023-04-24T04:11:45;20.92;;;4.78;;
64907;SDS011;69061;52.236;5.188;2023-04-24T04:14:13;6.00;;;3.50;;
64907;SDS011;69061;52.236;5.188;2023-04-24T04:16:40;12.15;;;4.07;;
64907;SDS011;69061;52.236;5.188;2023-04-24T04:19:07;31.05;;;4.68;;
64907;SDS011;69061;52.236;5.188;2023-04-24T04:21:33;5.53;;;3.92;;
64907;SDS011;69061;52.236;5.188;2023-04-24T04:24:00;4.47;;;3.25;;
64907;SDS011;69061;52.236;5.188;2023-04-24T04:26:26;12.00;;;4.03;;
64907;SDS011;69061;52.236;5.188;2023-04-24T04:28:53;9.57;;;3.55;;
64907;SDS011;69061;52.236;5.188;2023-04-24T04:31:21;5.45;;;3.50;;
64907;SDS011;69061;52.236;5.188;2023-04-24T04:33:48;10.65;;;4.07;;
64907;SDS011;69061;52.236;5.188;2023-04-24T04:36:14;6.70;;;3.40;;
64907;SDS011;69061;52.236;5.188;2023-04-24T04:38:42;12.55;;;3.58;;
64907;SDS011;69061;52.236;5.188;2023-04-24T04:41:09;5.43;;;3.10;;
64907;SDS011;69061;52.236;5.188;2023-04-24T04:43:36;5.45;;;3.53;;
64907;SDS011;69061;52.236;5.188;2023-04-24T04:46:04;8.57;;;3.50;;
64907;SDS011;69061;52.236;5.188;2023-04-24T04:48:34;6.00;;;3.83;;
64907;SDS011;69061;52.236;5.188;2023-04-24T04:51:01;6.80;;;4.05;;
64907;SDS011;69061;52.236;5.188;2023-04-24T04:53:27;9.35;;;4.15;;
64907;SDS011;69061;52.236;5.188;2023-04-24T04:55:54;7.32;;;3.78;;
64907;SDS011;69061;52.236;5.188;2023-04-24T04:58:20;10.50;;;3.65;;
64907;SDS011;69061;52.236;5.188;2023-04-24T05:00:46;9.80;;;3.72;;
64907;SDS011;69061;52.236;5.188;2023-04-24T05:03:13;5.18;;;3.63;;
64907;SDS011;69061;52.236;5.188;2023-04-24T05:05:41;7.70;;;3.83;;
64907;SDS011;69061;52.236;5.188;2023-04-24T05:08:08;9.95;;;3.20;;
64907;SDS011;69061;52.236;5.188;2023-04-24T05:10:34;4.10;;;2.72;;
64907;SDS011;69061;52.236;5.188;2023-04-24T05:13:02;5.97;;;3.00;;
64907;SDS011;69061;52.236;5.188;2023-04-24T05:15:28;6.65;;;3.08;;
64907;SDS011;69061;52.236;5.188;2023-04-24T05:17:55;5.70;;;2.70;;
64907;SDS011;69061;52.236;5.188;2023-04-24T05:20:22;3.85;;;2.47;;
64907;SDS011;69061;52.236;5.188;2023-04-24T05:22:49;2.50;;;2.30;;
64907;SDS011;69061;52.236;5.188;2023-04-24T05:25:16;3.78;;;2.33;;
64907;SDS011;69061;52.236;5.188;2023-04-24T05:27:43;3.58;;;2.13;;
64907;SDS011;69061;52.236;5.188;2023-04-24T05:30:11;4.05;;;2.15;;
64907;SDS011;69061;52.236;5.188;2023-04-24T05:32:37;2.33;;;2.05;;
64907;SDS011;69061;52.236;5.188;2023-04-24T05:35:04;3.47;;;2.28;;
64907;SDS011;69061;52.236;5.188;2023-04-24T05:37:31;4.50;;;2.40;;
64907;SDS011;69061;52.236;5.188;2023-04-24T05:39:59;5.35;;;2.20;;
64907;SDS011;69061;52.236;5.188;2023-04-24T05:42:26;3.45;;;2.03;;
64907;SDS011;69061;52.236;5.188;2023-04-24T05:44:52;3.38;;;2.13;;
64907;SDS011;69061;52.236;5.188;2023-04-24T05:47:19;2.53;;;2.10;;
64907;SDS011;69061;52.236;5.188;2023-04-24T05:49:46;5.07;;;1.92;;
64907;SDS011;69061;52.236;5.188;2023-04-24T05:52:13;2.10;;;2.00;;
64907;SDS011;69061;52.236;5.188;2023-04-24T05:54:39;2.40;;;2.00;;
64907;SDS011;69061;52.236;5.188;2023-04-24T05:57:07;2.67;;;2.15;;
64907;SDS011;69061;52.236;5.188;2023-04-24T05:59:34;2.22;;;1.67;;
64907;SDS011;69061;52.236;5.188;2023-04-24T06:02:02;2.92;;;2.05;;
64907;SDS011;69061;52.236;5.188;2023-04-24T06:04:29;5.60;;;2.38;;
64907;SDS011;69061;52.236;5.188;2023-04-24T06:06:56;6.47;;;4.78;;
64907;SDS011;69061;52.236;5.188;2023-04-24T06:09:22;6.85;;;3.97;;
64907;SDS011;69061;52.236;5.188;2023-04-24T06:11:49;10.23;;;5.78;;
64907;SDS011;69061;52.236;5.188;2023-04-24T06:14:19;14.02;;;8.40;;
64907;SDS011;69061;52.236;5.188;2023-04-24T06:16:46;13.25;;;8.13;;
64907;SDS011;69061;52.236;5.188;2023-04-24T06:19:12;20.10;;;9.48;;
64907;SDS011;69061;52.236;5.188;2023-04-24T06:21:39;17.25;;;10.45;;
64907;SDS011;69061;52.236;5.188;2023-04-24T06:24:05;17.58;;;11.88;;
64907;SDS011;69061;52.236;5.188;2023-04-24T06:26:32;16.13;;;10.45;;
64907;SDS011;69061;52.236;5.188;2023-04-24T06:28:59;19.65;;;11.05;;
64907;SDS011;69061;52.236;5.188;2023-04-24T06:31:27;16.38;;;10.88;;
64907;SDS011;69061;52.236;5.188;2023-04-24T06:33:53;16.15;;;9.85;;
64907;SDS011;69061;52.236;5.188;2023-04-24T06:36:20;21.58;;;12.05;;
64907;SDS011;69061;52.236;5.188;2023-04-24T06:38:46;18.48;;;11.07;;
64907;SDS011;69061;52.236;5.188;2023-04-24T06:41:13;20.10;;;11.23;;
64907;SDS011;69061;52.236;5.188;2023-04-24T06:43:39;13.85;;;9.05;;
64907;SDS011;69061;52.236;5.188;2023-04-24T06:46:06;18.77;;;9.40;;
64907;SDS011;69061;52.236;5.188;2023-04-24T06:48:34;16.10;;;9.60;;
64907;SDS011;69061;52.236;5.188;2023-04-24T06:51:01;12.43;;;8.10;;
64907;SDS011;69061;52.236;5.188;2023-04-24T06:53:27;16.70;;;9.57;;
64907;SDS011;69061;52.236;5.188;2023-04-24T06:55:54;15.98;;;9.82;;
64907;SDS011;69061;52.236;5.188;2023-04-24T06:58:21;17.52;;;8.52;;
64907;SDS011;69061;52.236;5.188;2023-04-24T07:00:48;18.65;;;9.75;;
64907;SDS011;69061;52.236;5.188;2023-04-24T07:03:14;13.13;;;8.68;;
64907;SDS011;69061;52.236;5.188;2023-04-24T07:05:42;12.43;;;8.27;;
64907;SDS011;69061;52.236;5.188;2023-04-24T07:08:09;17.30;;;8.73;;
64907;SDS011;69061;52.236;5.188;2023-04-24T07:10:36;20.27;;;9.23;;
64907;SDS011;69061;52.236;5.188;2023-04-24T07:13:02;17.58;;;9.55;;
64907;SDS011;69061;52.236;5.188;2023-04-24T07:15:29;12.85;;;7.80;;
64907;SDS011;69061;52.236;5.188;2023-04-24T07:17:57;13.02;;;8.60;;
64907;SDS011;69061;52.236;5.188;2023-04-24T07:20:23;13.93;;;9.02;;
64907;SDS011;69061;52.236;5.188;2023-04-24T07:22:52;12.82;;;7.28;;
64907;SDS011;69061;52.236;5.188;2023-04-24T07:25:19;14.43;;;8.45;;
64907;SDS011;69061;52.236;5.188;2023-04-24T07:27:45;14.07;;;8.82;;
64907;SDS011;69061;52.236;5.188;2023-04-24T07:30:13;18.52;;;8.70;;
64907;SDS011;69061;52.236;5.188;2023-04-24T07:32:40;14.65;;;8.85;;
64907;SDS011;69061;52.236;5.188;2023-04-24T07:35:06;14.15;;;8.00;;
64907;SDS011;69061;52.236;5.188;2023-04-24T07:37:34;14.18;;;9.05;;
64907;SDS011;69061;52.236;5.188;2023-04-24T07:40:02;18.67;;;9.10;;
64907;SDS011;69061;52.236;5.188;2023-04-24T07:42:29;14.10;;;8.30;;
64907;SDS011;69061;52.236;5.188;2023-04-24T07:44:56;16.55;;;8.20;;
64907;SDS011;69061;52.236;5.188;2023-04-24T07:47:24;14.02;;;6.90;;
64907;SDS011;69061;52.236;5.188;2023-04-24T07:49:51;13.98;;;7.13;;
64907;SDS011;69061;52.236;5.188;2023-04-24T07:52:18;16.42;;;8.30;;
64907;SDS011;69061;52.236;5.188;2023-04-24T07:54:44;14.23;;;6.88;;
64907;SDS011;69061;52.236;5.188;2023-04-24T07:57:12;11.75;;;6.40;;
64907;SDS011;69061;52.236;5.188;2023-04-24T07:59:41;10.75;;;6.18;;
64907;SDS011;69061;52.236;5.188;2023-04-24T08:02:07;14.43;;;6.20;;
64907;SDS011;69061;52.236;5.188;2023-04-24T08:04:34;13.38;;;5.90;;
64907;SDS011;69061;52.236;5.188;2023-04-24T08:07:01;12.48;;;6.35;;
64907;SDS011;69061;52.236;5.188;2023-04-24T08:09:27;23.00;;;7.60;;
64907;SDS011;69061;52.236;5.188;2023-04-24T08:11:54;17.23;;;6.72;;
64907;SDS011;69061;52.236;5.188;2023-04-24T08:14:22;13.18;;;5.60;;
64907;SDS011;69061;52.236;5.188;2023-04-24T08:16:49;17.77;;;5.22;;
64907;SDS011;69061;52.236;5.188;2023-04-24T08:19:16;12.52;;;5.85;;
64907;SDS011;69061;52.236;5.188;2023-04-24T08:21:42;17.15;;;5.25;;
64907;SDS011;69061;52.236;5.188;2023-04-24T08:24:09;15.27;;;4.93;;
64907;SDS011;69061;52.236;5.188;2023-04-24T08:26:35;18.13;;;5.30;;
64907;SDS011;69061;52.236;5.188;2023-04-24T08:29:02;14.93;;;5.43;;
64907;SDS011;69061;52.236;5.188;2023-04-24T08:31:30;12.90;;;5.20;;
64907;SDS011;69061;52.236;5.188;2023-04-24T08:33:56;15.98;;;5.63;;
64907;SDS011;69061;52.236;5.188;2023-04-24T08:36:23;14.70;;;5.75;;
64907;SDS011;69061;52.236;5.188;2023-04-24T08:38:51;16.05;;;5.63;;
64907;SDS011;69061;52.236;5.188;2023-04-24T08:41:20;16.25;;;6.00;;
64907;SDS011;69061;52.236;5.188;2023-04-24T08:43:51;11.38;;;4.22;;
64907;SDS011;69061;52.236;5.188;2023-04-24T08:46:18;12.65;;;5.18;;
64907;SDS011;69061;52.236;5.188;2023-04-24T08:48:47;14.10;;;4.20;;
64907;SDS011;69061;52.236;5.188;2023-04-24T08:51:14;10.65;;;4.97;;
64907;SDS011;69061;52.236;5.188;2023-04-24T08:53:41;19.35;;;5.80;;
64907;SDS011;69061;52.236;5.188;2023-04-24T08:56:07;12.13;;;4.47;;
64907;SDS011;69061;52.236;5.188;2023-04-24T08:58:35;11.70;;;4.43;;
64907;SDS011;69061;52.236;5.188;2023-04-24T09:01:02;9.93;;;4.20;;
64907;SDS011;69061;52.236;5.188;2023-04-24T09:03:29;12.55;;;4.05;;
64907;SDS011;69061;52.236;5.188;2023-04-24T09:05:58;14.63;;;4.88;;
64907;SDS011;69061;52.236;5.188;2023-04-24T09:08:26;13.68;;;4.53;;
64907;SDS011;69061;52.236;5.188;2023-04-24T09:10:55;13.70;;;4.72;;
64907;SDS011;69061;52.236;5.188;2023-04-24T09:13:23;19.02;;;5.68;;
64907;SDS011;69061;52.236;5.188;2023-04-24T09:15:50;10.15;;;4.00;;
64907;SDS011;69061;52.236;5.188;2023-04-24T09:18:18;8.23;;;3.97;;
64907;SDS011;69061;52.236;5.188;2023-04-24T09:20:56;11.35;;;4.15;;
64907;SDS011;69061;52.236;5.188;2023-04-24T09:23:26;20.38;;;4.53;;
64907;SDS011;69061;52.236;5.188;2023-04-24T09:25:54;16.88;;;5.18;;
64907;SDS011;69061;52.236;5.188;2023-04-24T09:28:24;16.23;;;5.22;;
64907;SDS011;69061;52.236;5.188;2023-04-24T09:31:01;12.02;;;4.40;;
64907;SDS011;69061;52.236;5.188;2023-04-24T09:33:28;15.88;;;4.90;;
64907;SDS011;69061;52.236;5.188;2023-04-24T09:35:55;13.90;;;4.95;;
64907;SDS011;69061;52.236;5.188;2023-04-24T09:38:31;11.10;;;4.20;;
64907;SDS011;69061;52.236;5.188;2023-04-24T09:40:59;14.48;;;4.90;;
64907;SDS011;69061;52.236;5.188;2023-04-24T09:43:28;12.45;;;4.70;;
64907;SDS011;69061;52.236;5.188;2023-04-24T09:45:55;9.45;;;4.30;;
64907;SDS011;69061;52.236;5.188;2023-04-24T09:48:29;13.10;;;4.72;;
64907;SDS011;69061;52.236;5.188;2023-04-24T09:50:56;15.88;;;4.55;;
64907;SDS011;69061;52.236;5.188;2023-04-24T09:53:23;18.23;;;6.15;;
64907;SDS011;69061;52.236;5.188;2023-04-24T09:55:52;9.55;;;4.90;;
64907;SDS011;69061;52.236;5.188;2023-04-24T09:58:24;13.45;;;4.45;;
64907;SDS011;69061;52.236;5.188;2023-04-24T10:00:53;11.30;;;4.72;;
64907;SDS011;69061;52.236;5.188;2023-04-24T10:03:20;8.68;;;4.03;;
64907;SDS011;69061;52.236;5.188;2023-04-24T10:05:46;10.25;;;3.70;;
64907;SDS011;69061;52.236;5.188;2023-04-24T10:08:13;9.82;;;3.53;;
64907;SDS011;69061;52.236;5.188;2023-04-24T10:10:41;6.47;;;2.90;;
64907;SDS011;69061;52.236;5.188;2023-04-24T10:13:11;9.88;;;3.60;;
64907;SDS011;69061;52.236;5.188;2023-04-24T10:15:38;8.75;;;3.25;;
64907;SDS011;69061;52.236;5.188;2023-04-24T10:18:06;8.93;;;3.55;;
64907;SDS011;69061;52.236;5.188;2023-04-24T10:20:34;6.75;;;3.15;;
64907;SDS011;69061;52.236;5.188;2023-04-24T10:23:04;6.35;;;2.72;;
64907;SDS011;69061;52.236;5.188;2023-04-24T10:25:32;6.95;;;3.20;;
64907;SDS011;69061;52.236;5.188;2023-04-24T10:28:00;7.95;;;3.40;;
64907;SDS011;69061;52.236;5.188;2023-04-24T10:30:30;7.10;;;3.13;;
64907;SDS011;69061;52.236;5.188;2023-04-24T10:32:59;8.05;;;3.00;;
64907;SDS011;69061;52.236;5.188;2023-04-24T10:35:26;6.45;;;3.05;;
64907;SDS011;69061;52.236;5.188;2023-04-24T10:37:57;8.88;;;3.53;;
64907;SDS011;69061;52.236;5.188;2023-04-24T10:40:29;9.15;;;3.17;;
64907;SDS011;69061;52.236;5.188;2023-04-24T10:42:57;4.95;;;2.50;;
64907;SDS011;69061;52.236;5.188;2023-04-24T10:45:23;8.75;;;2.78;;
64907;SDS011;69061;52.236;5.188;2023-04-24T10:47:52;5.30;;;2.90;;
64907;SDS011;69061;52.236;5.188;2023-04-24T10:50:26;6.60;;;3.03;;
64907;SDS011;69061;52.236;5.188;2023-04-24T10:52:55;13.18;;;3.28;;
64907;SDS011;69061;52.236;5.188;2023-04-24T10:58:18;6.35;;;3.10;;
64907;SDS011;69061;52.236;5.188;2023-04-24T11:00:55;6.28;;;2.55;;
64907;SDS011;69061;52.236;5.188;2023-04-24T11:03:25;6.97;;;3.03;;
64907;SDS011;69061;52.236;5.188;2023-04-24T11:05:53;11.85;;;3.40;;
64907;SDS011;69061;52.236;5.188;2023-04-24T11:08:29;5.50;;;2.58;;
64907;SDS011;69061;52.236;5.188;2023-04-24T11:10:58;6.95;;;3.00;;
64907;SDS011;69061;52.236;5.188;2023-04-24T11:13:28;5.57;;;2.70;;
64907;SDS011;69061;52.236;5.188;2023-04-24T11:16:35;5.95;;;2.50;;
64907;SDS011;69061;52.236;5.188;2023-04-24T11:19:07;5.55;;;2.75;;
64907;SDS011;69061;52.236;5.188;2023-04-24T11:21:41;4.00;;;2.25;;
64907;SDS011;69061;52.236;5.188;2023-04-24T11:24:26;5.00;;;2.25;;
64907;SDS011;69061;52.236;5.188;2023-04-24T11:26:58;5.93;;;2.40;;
64907;SDS011;69061;52.236;5.188;2023-04-24T11:29:38;3.35;;;1.85;;
64907;SDS011;69061;52.236;5.188;2023-04-24T11:32:14;4.10;;;2.13;;
64907;SDS011;69061;52.236;5.188;2023-04-24T11:34:47;3.88;;;2.20;;
64907;SDS011;69061;52.236;5.188;2023-04-24T11:37:14;3.63;;;2.40;;
64907;SDS011;69061;52.236;5.188;2023-04-24T11:39:41;6.80;;;2.30;;
64907;SDS011;69061;52.236;5.188;2023-04-24T11:42:08;4.32;;;2.20;;
64907;SDS011;69061;52.236;5.188;2023-04-24T11:44:35;3.88;;;2.22;;
64907;SDS011;69061;52.236;5.188;2023-04-24T11:47:02;4.50;;;2.17;;
64907;SDS011;69061;52.236;5.188;2023-04-24T11:49:29;8.63;;;3.13;;
64907;SDS011;69061;52.236;5.188;2023-04-24T11:51:56;4.88;;;2.47;;
64907;SDS011;69061;52.236;5.188;2023-04-24T11:54:23;4.90;;;2.60;;
64907;SDS011;69061;52.236;5.188;2023-04-24T11:56:50;6.63;;;2.90;;
64907;SDS011;69061;52.236;5.188;2023-04-24T11:59:16;10.65;;;3.13;;
64907;SDS011;69061;52.236;5.188;2023-04-24T12:01:43;7.07;;;2.75;;
64907;SDS011;69061;52.236;5.188;2023-04-24T12:04:10;6.07;;;2.85;;
64907;SDS011;69061;52.236;5.188;2023-04-24T12:06:37;4.75;;;2.53;;
64907;SDS011;69061;52.236;5.188;2023-04-24T12:09:05;9.70;;;2.70;;
64907;SDS011;69061;52.236;5.188;2023-04-24T12:11:33;7.10;;;3.10;;
64907;SDS011;69061;52.236;5.188;2023-04-24T12:14:09;6.32;;;2.30;;
64907;SDS011;69061;52.236;5.188;2023-04-24T12:16:36;6.28;;;2.50;;
64907;SDS011;69061;52.236;5.188;2023-04-24T12:19:03;6.50;;;2.92;;
64907;SDS011;69061;52.236;5.188;2023-04-24T12:21:31;12.10;;;2.95;;
64907;SDS011;69061;52.236;5.188;2023-04-24T12:23:57;11.00;;;3.13;;
64907;SDS011;69061;52.236;5.188;2023-04-24T12:26:26;9.55;;;3.65;;
64907;SDS011;69061;52.236;5.188;2023-04-24T12:28:54;6.28;;;3.15;;
64907;SDS011;69061;52.236;5.188;2023-04-24T12:31:20;8.32;;;3.00;;
64907;SDS011;69061;52.236;5.188;2023-04-24T12:33:47;9.60;;;3.53;;
64907;SDS011;69061;52.236;5.188;2023-04-24T12:36:14;9.55;;;3.42;;
64907;SDS011;69061;52.236;5.188;2023-04-24T12:38:43;12.18;;;3.40;;
64907;SDS011;69061;52.236;5.188;2023-04-24T12:41:11;10.85;;;3.50;;
64907;SDS011;69061;52.236;5.188;2023-04-24T12:43:49;10.80;;;3.80;;
64907;SDS011;69061;52.236;5.188;2023-04-24T12:46:17;15.68;;;4.68;;
64907;SDS011;69061;52.236;5.188;2023-04-24T12:48:44;14.80;;;4.60;;
64907;SDS011;69061;52.236;5.188;2023-04-24T12:51:10;13.80;;;4.85;;
64907;SDS011;69061;52.236;5.188;2023-04-24T12:53:37;12.80;;;4.22;;
64907;SDS011;69061;52.236;5.188;2023-04-24T12:56:03;13.10;;;4.43;;
64907;SDS011;69061;52.236;5.188;2023-04-24T12:58:30;14.00;;;4.57;;
64907;SDS011;69061;52.236;5.188;2023-04-24T13:00:58;13.15;;;4.32;;
64907;SDS011;69061;52.236;5.188;2023-04-24T13:03:25;19.45;;;5.57;;
64907;SDS011;69061;52.236;5.188;2023-04-24T13:05:52;16.55;;;4.53;;
64907;SDS011;69061;52.236;5.188;2023-04-24T13:08:19;13.80;;;4.28;;
64907;SDS011;69061;52.236;5.188;2023-04-24T13:10:45;12.13;;;4.50;;
64907;SDS011;69061;52.236;5.188;2023-04-24T13:13:12;9.50;;;4.05;;
64907;SDS011;69061;52.236;5.188;2023-04-24T13:15:39;16.15;;;5.55;;
64907;SDS011;69061;52.236;5.188;2023-04-24T13:18:06;11.40;;;4.72;;
64907;SDS011;69061;52.236;5.188;2023-04-24T13:20:33;12.98;;;4.53;;
64907;SDS011;69061;52.236;5.188;2023-04-24T13:23:00;12.95;;;4.07;;
64907;SDS011;69061;52.236;5.188;2023-04-24T13:25:27;12.85;;;4.43;;
64907;SDS011;69061;52.236;5.188;2023-04-24T13:27:54;13.32;;;4.68;;
64907;SDS011;69061;52.236;5.188;2023-04-24T13:30:21;14.32;;;4.63;;
64907;SDS011;69061;52.236;5.188;2023-04-24T13:32:47;9.57;;;3.90;;
64907;SDS011;69061;52.236;5.188;2023-04-24T13:35:15;10.25;;;3.80;;
64907;SDS011;69061;52.236;5.188;2023-04-24T13:37:42;12.10;;;5.28;;
64907;SDS011;69061;52.236;5.188;2023-04-24T13:40:09;14.15;;;5.35;;
64907;SDS011;69061;52.236;5.188;2023-04-24T13:42:36;15.25;;;4.75;;
64907;SDS011;69061;52.236;5.188;2023-04-24T13:45:03;10.75;;;4.45;;
64907;SDS011;69061;52.236;5.188;2023-04-24T13:47:30;11.10;;;4.60;;
64907;SDS011;69061;52.236;5.188;2023-04-24T13:49:57;13.77;;;5.88;;
64907;SDS011;69061;52.236;5.188;2023-04-24T13:52:25;18.95;;;6.30;;
64907;SDS011;69061;52.236;5.188;2023-04-24T13:54:52;10.82;;;4.60;;
64907;SDS011;69061;52.236;5.188;2023-04-24T13:57:20;9.13;;;3.80;;
64907;SDS011;69061;52.236;5.188;2023-04-24T13:59:47;9.43;;;4.70;;
64907;SDS011;69061;52.236;5.188;2023-04-24T14:02:13;11.20;;;4.43;;
64907;SDS011;69061;52.236;5.188;2023-04-24T14:04:40;9.75;;;4.22;;
64907;SDS011;69061;52.236;5.188;2023-04-24T14:07:06;12.18;;;5.03;;
64907;SDS011;69061;52.236;5.188;2023-04-24T14:09:37;15.48;;;5.10;;
64907;SDS011;69061;52.236;5.188;2023-04-24T14:12:04;13.40;;;5.57;;
64907;SDS011;69061;52.236;5.188;2023-04-24T14:14:31;16.25;;;5.07;;
64907;SDS011;69061;52.236;5.188;2023-04-24T14:16:58;14.90;;;5.20;;
64907;SDS011;69061;52.236;5.188;2023-04-24T14:19:25;15.70;;;4.57;;
64907;SDS011;69061;52.236;5.188;2023-04-24T14:21:53;11.43;;;4.45;;
64907;SDS011;69061;52.236;5.188;2023-04-24T14:24:21;12.93;;;4.80;;
64907;SDS011;69061;52.236;5.188;2023-04-24T14:26:49;9.98;;;4.97;;
64907;SDS011;69061;52.236;5.188;2023-04-24T14:29:16;14.07;;;5.22;;
64907;SDS011;69061;52.236;5.188;2023-04-24T14:31:42;17.02;;;4.47;;
64907;SDS011;69061;52.236;5.188;2023-04-24T14:34:10;10.68;;;4.40;;
64907;SDS011;69061;52.236;5.188;2023-04-24T14:36:36;11.75;;;4.43;;
64907;SDS011;69061;52.236;5.188;2023-04-24T14:39:03;13.32;;;4.18;;
64907;SDS011;69061;52.236;5.188;2023-04-24T14:41:33;21.33;;;11.18;;
64907;SDS011;69061;52.236;5.188;2023-04-24T14:44:02;13.88;;;4.65;;
64907;SDS011;69061;52.236;5.188;2023-04-24T14:46:28;10.43;;;4.13;;